sensor_id;sensor_type;location;lat;lon;timestamp;P1;durP1;ratioP1;P2;durP2;ratioP2
59042;SDS011;44826;51.596;5.624;2022-09-16T00:00:15;2.10;;;0.90;;
59042;SDS011;44826;51.596;5.624;2022-09-16T00:02:40;3.08;;;0.95;;
59042;SDS011;44826;51.596;5.624;2022-09-16T00:05:06;3.50;;;0.85;;
59042;SDS011;44826;51.596;5.624;2022-09-16T00:07:32;6.53;;;1.10;;
59042;SDS011;44826;51.596;5.624;2022-09-16T00:09:57;2.95;;;0.98;;
59042;SDS011;44826;51.596;5.624;2022-09-16T00:12:23;1.80;;;0.85;;
59042;SDS011;44826;51.596;5.624;2022-09-16T00:14:48;3.28;;;1.10;;
59042;SDS011;44826;51.596;5.624;2022-09-16T00:17:16;3.30;;;1.05;;
59042;SDS011;44826;51.596;5.624;2022-09-16T00:19:41;2.65;;;1.20;;
59042;SDS011;44826;51.596;5.624;2022-09-16T00:22:07;3.67;;;1.00;;
59042;SDS011;44826;51.596;5.624;2022-09-16T00:24:32;4.22;;;1.27;;
59042;SDS011;44826;51.596;5.624;2022-09-16T00:26:57;4.00;;;1.30;;
59042;SDS011;44826;51.596;5.624;2022-09-16T00:29:22;5.65;;;1.20;;
59042;SDS011;44826;51.596;5.624;2022-09-16T00:31:48;3.38;;;1.10;;
59042;SDS011;44826;51.596;5.624;2022-09-16T00:34:13;4.57;;;1.48;;
59042;SDS011;44826;51.596;5.624;2022-09-16T00:36:38;4.18;;;1.30;;
59042;SDS011;44826;51.596;5.624;2022-09-16T00:39:03;4.15;;;1.17;;
59042;SDS011;44826;51.596;5.624;2022-09-16T00:41:29;2.65;;;1.20;;
59042;SDS011;44826;51.596;5.624;2022-09-16T00:44:04;4.32;;;1.25;;
59042;SDS011;44826;51.596;5.624;2022-09-16T00:46:48;3.55;;;1.05;;
59042;SDS011;44826;51.596;5.624;2022-09-16T00:49:18;3.58;;;1.17;;
59042;SDS011;44826;51.596;5.624;2022-09-16T00:51:48;2.45;;;1.17;;
59042;SDS011;44826;51.596;5.624;2022-09-16T00:54:16;4.85;;;1.25;;
59042;SDS011;44826;51.596;5.624;2022-09-16T00:56:43;3.25;;;1.15;;
59042;SDS011;44826;51.596;5.624;2022-09-16T00:59:23;5.03;;;1.10;;
59042;SDS011;44826;51.596;5.624;2022-09-16T01:01:51;4.03;;;1.35;;
59042;SDS011;44826;51.596;5.624;2022-09-16T01:04:20;3.60;;;1.10;;
59042;SDS011;44826;51.596;5.624;2022-09-16T01:06:50;1.98;;;1.08;;
59042;SDS011;44826;51.596;5.624;2022-09-16T01:09:17;2.13;;;1.00;;
59042;SDS011;44826;51.596;5.624;2022-09-16T01:11:45;4.30;;;1.20;;
59042;SDS011;44826;51.596;5.624;2022-09-16T01:14:10;5.15;;;1.67;;
59042;SDS011;44826;51.596;5.624;2022-09-16T01:16:57;4.20;;;1.33;;
59042;SDS011;44826;51.596;5.624;2022-09-16T01:19:46;3.55;;;1.30;;
59042;SDS011;44826;51.596;5.624;2022-09-16T01:28:11;4.28;;;1.20;;
59042;SDS011;44826;51.596;5.624;2022-09-16T01:30:57;2.83;;;1.20;;
59042;SDS011;44826;51.596;5.624;2022-09-16T01:37:03;3.97;;;1.23;;
59042;SDS011;44826;51.596;5.624;2022-09-16T01:42:19;4.43;;;1.40;;
59042;SDS011;44826;51.596;5.624;2022-09-16T01:45:03;3.95;;;1.58;;
59042;SDS011;44826;51.596;5.624;2022-09-16T01:47:56;4.85;;;1.50;;
59042;SDS011;44826;51.596;5.624;2022-09-16T01:50:46;2.70;;;1.25;;
59042;SDS011;44826;51.596;5.624;2022-09-16T01:53:26;5.38;;;1.60;;
59042;SDS011;44826;51.596;5.624;2022-09-16T02:01:01;3.40;;;1.58;;
59042;SDS011;44826;51.596;5.624;2022-09-16T02:03:33;5.65;;;1.70;;
59042;SDS011;44826;51.596;5.624;2022-09-16T02:06:10;4.35;;;1.50;;
59042;SDS011;44826;51.596;5.624;2022-09-16T02:08:52;2.85;;;1.27;;
59042;SDS011;44826;51.596;5.624;2022-09-16T02:11:21;2.55;;;1.13;;
59042;SDS011;44826;51.596;5.624;2022-09-16T02:13:55;4.68;;;1.30;;
59042;SDS011;44826;51.596;5.624;2022-09-16T02:16:28;4.07;;;1.40;;
59042;SDS011;44826;51.596;5.624;2022-09-16T02:18:59;4.30;;;1.50;;
59042;SDS011;44826;51.596;5.624;2022-09-16T02:21:29;2.77;;;1.37;;
59042;SDS011;44826;51.596;5.624;2022-09-16T02:23:58;3.17;;;1.35;;
59042;SDS011;44826;51.596;5.624;2022-09-16T02:26:35;4.97;;;1.33;;
59042;SDS011;44826;51.596;5.624;2022-09-16T02:29:15;5.85;;;1.60;;
59042;SDS011;44826;51.596;5.624;2022-09-16T02:31:44;4.03;;;1.48;;
59042;SDS011;44826;51.596;5.624;2022-09-16T02:34:17;5.30;;;1.77;;
59042;SDS011;44826;51.596;5.624;2022-09-16T02:36:46;5.40;;;1.90;;
59042;SDS011;44826;51.596;5.624;2022-09-16T02:41:45;3.97;;;1.50;;
59042;SDS011;44826;51.596;5.624;2022-09-16T02:44:11;5.00;;;1.27;;
59042;SDS011;44826;51.596;5.624;2022-09-16T02:46:38;4.05;;;1.58;;
59042;SDS011;44826;51.596;5.624;2022-09-16T02:49:24;4.18;;;1.60;;
59042;SDS011;44826;51.596;5.624;2022-09-16T02:54:56;2.50;;;1.55;;
59042;SDS011;44826;51.596;5.624;2022-09-16T02:57:29;5.07;;;1.80;;
59042;SDS011;44826;51.596;5.624;2022-09-16T02:59:54;5.07;;;1.60;;
59042;SDS011;44826;51.596;5.624;2022-09-16T03:02:20;4.20;;;1.35;;
59042;SDS011;44826;51.596;5.624;2022-09-16T03:04:46;9.07;;;1.42;;
59042;SDS011;44826;51.596;5.624;2022-09-16T03:07:12;6.07;;;1.67;;
59042;SDS011;44826;51.596;5.624;2022-09-16T03:09:40;6.63;;;2.10;;
59042;SDS011;44826;51.596;5.624;2022-09-16T03:18:00;6.88;;;1.88;;
59042;SDS011;44826;51.596;5.624;2022-09-16T03:28:25;4.20;;;1.27;;
59042;SDS011;44826;51.596;5.624;2022-09-16T03:31:17;2.88;;;1.30;;
59042;SDS011;44826;51.596;5.624;2022-09-16T03:36:39;2.42;;;1.10;;
59042;SDS011;44826;51.596;5.624;2022-09-16T03:39:09;3.78;;;1.10;;
59042;SDS011;44826;51.596;5.624;2022-09-16T03:41:36;2.47;;;1.00;;
59042;SDS011;44826;51.596;5.624;2022-09-16T03:44:01;2.58;;;1.10;;
59042;SDS011;44826;51.596;5.624;2022-09-16T03:46:27;1.67;;;1.02;;
59042;SDS011;44826;51.596;5.624;2022-09-16T03:48:56;3.03;;;0.93;;
59042;SDS011;44826;51.596;5.624;2022-09-16T03:51:21;3.95;;;1.25;;
59042;SDS011;44826;51.596;5.624;2022-09-16T03:53:48;3.40;;;0.73;;
59042;SDS011;44826;51.596;5.624;2022-09-16T03:56:14;3.75;;;1.02;;
59042;SDS011;44826;51.596;5.624;2022-09-16T03:58:39;3.33;;;0.65;;
59042;SDS011;44826;51.596;5.624;2022-09-16T04:01:04;2.30;;;0.70;;
59042;SDS011;44826;51.596;5.624;2022-09-16T04:03:29;2.45;;;0.75;;
59042;SDS011;44826;51.596;5.624;2022-09-16T04:05:55;2.05;;;0.63;;
59042;SDS011;44826;51.596;5.624;2022-09-16T04:08:21;2.60;;;0.88;;
59042;SDS011;44826;51.596;5.624;2022-09-16T04:10:54;3.92;;;0.73;;
59042;SDS011;44826;51.596;5.624;2022-09-16T04:13:20;1.80;;;0.60;;
59042;SDS011;44826;51.596;5.624;2022-09-16T04:15:46;2.83;;;0.80;;
59042;SDS011;44826;51.596;5.624;2022-09-16T04:18:11;2.85;;;0.88;;
59042;SDS011;44826;51.596;5.624;2022-09-16T04:20:36;4.20;;;1.48;;
59042;SDS011;44826;51.596;5.624;2022-09-16T04:23:02;1.75;;;0.80;;
59042;SDS011;44826;51.596;5.624;2022-09-16T04:25:27;4.32;;;0.80;;
59042;SDS011;44826;51.596;5.624;2022-09-16T04:27:52;4.18;;;1.00;;
59042;SDS011;44826;51.596;5.624;2022-09-16T04:30:18;2.47;;;0.55;;
59042;SDS011;44826;51.596;5.624;2022-09-16T04:32:44;2.95;;;0.65;;
59042;SDS011;44826;51.596;5.624;2022-09-16T04:35:09;2.42;;;0.70;;
59042;SDS011;44826;51.596;5.624;2022-09-16T04:37:35;2.00;;;0.63;;
59042;SDS011;44826;51.596;5.624;2022-09-16T04:40:00;0.63;;;0.40;;
59042;SDS011;44826;51.596;5.624;2022-09-16T04:42:26;1.90;;;0.40;;
59042;SDS011;44826;51.596;5.624;2022-09-16T04:44:51;3.08;;;0.80;;
59042;SDS011;44826;51.596;5.624;2022-09-16T04:47:16;2.08;;;0.80;;
59042;SDS011;44826;51.596;5.624;2022-09-16T04:49:41;3.05;;;0.90;;
59042;SDS011;44826;51.596;5.624;2022-09-16T04:52:07;2.70;;;0.63;;
59042;SDS011;44826;51.596;5.624;2022-09-16T04:54:32;2.75;;;0.52;;
59042;SDS011;44826;51.596;5.624;2022-09-16T04:56:57;1.23;;;0.50;;
59042;SDS011;44826;51.596;5.624;2022-09-16T04:59:22;2.03;;;0.80;;
59042;SDS011;44826;51.596;5.624;2022-09-16T05:01:48;2.78;;;0.50;;
59042;SDS011;44826;51.596;5.624;2022-09-16T05:04:13;1.33;;;0.60;;
59042;SDS011;44826;51.596;5.624;2022-09-16T05:06:39;2.42;;;0.55;;
59042;SDS011;44826;51.596;5.624;2022-09-16T05:09:05;2.60;;;0.90;;
59042;SDS011;44826;51.596;5.624;2022-09-16T05:11:35;2.20;;;0.60;;
59042;SDS011;44826;51.596;5.624;2022-09-16T05:14:03;2.20;;;0.70;;
59042;SDS011;44826;51.596;5.624;2022-09-16T05:16:32;3.13;;;0.60;;
59042;SDS011;44826;51.596;5.624;2022-09-16T05:18:58;3.58;;;0.60;;
59042;SDS011;44826;51.596;5.624;2022-09-16T05:21:25;2.42;;;0.85;;
59042;SDS011;44826;51.596;5.624;2022-09-16T05:23:52;3.25;;;0.70;;
59042;SDS011;44826;51.596;5.624;2022-09-16T05:26:21;3.47;;;0.65;;
59042;SDS011;44826;51.596;5.624;2022-09-16T05:28:48;3.22;;;0.60;;
59042;SDS011;44826;51.596;5.624;2022-09-16T05:31:18;3.22;;;0.60;;
59042;SDS011;44826;51.596;5.624;2022-09-16T05:33:55;2.25;;;0.70;;
59042;SDS011;44826;51.596;5.624;2022-09-16T05:36:22;2.97;;;0.60;;
59042;SDS011;44826;51.596;5.624;2022-09-16T05:38:48;2.63;;;0.70;;
59042;SDS011;44826;51.596;5.624;2022-09-16T05:41:14;3.30;;;0.70;;
59042;SDS011;44826;51.596;5.624;2022-09-16T05:43:39;2.72;;;0.75;;
59042;SDS011;44826;51.596;5.624;2022-09-16T05:46:05;2.28;;;0.52;;
59042;SDS011;44826;51.596;5.624;2022-09-16T05:48:31;2.28;;;0.60;;
59042;SDS011;44826;51.596;5.624;2022-09-16T05:53:24;3.00;;;0.50;;
59042;SDS011;44826;51.596;5.624;2022-09-16T05:56:01;2.17;;;0.52;;
59042;SDS011;44826;51.596;5.624;2022-09-16T05:58:29;2.50;;;0.45;;
59042;SDS011;44826;51.596;5.624;2022-09-16T06:00:59;1.75;;;0.47;;
59042;SDS011;44826;51.596;5.624;2022-09-16T06:03:30;0.88;;;0.40;;
59042;SDS011;44826;51.596;5.624;2022-09-16T06:06:04;1.33;;;0.40;;
59042;SDS011;44826;51.596;5.624;2022-09-16T06:08:30;1.83;;;0.50;;
59042;SDS011;44826;51.596;5.624;2022-09-16T06:11:01;2.60;;;0.60;;
59042;SDS011;44826;51.596;5.624;2022-09-16T06:13:32;1.60;;;0.32;;
59042;SDS011;44826;51.596;5.624;2022-09-16T06:15:57;1.08;;;0.40;;
59042;SDS011;44826;51.596;5.624;2022-09-16T06:18:24;1.00;;;0.30;;
59042;SDS011;44826;51.596;5.624;2022-09-16T06:20:50;1.05;;;0.35;;
59042;SDS011;44826;51.596;5.624;2022-09-16T06:23:16;1.73;;;0.30;;
59042;SDS011;44826;51.596;5.624;2022-09-16T06:25:42;3.42;;;0.60;;
59042;SDS011;44826;51.596;5.624;2022-09-16T06:28:08;2.50;;;0.50;;
59042;SDS011;44826;51.596;5.624;2022-09-16T06:30:35;1.90;;;0.52;;
59042;SDS011;44826;51.596;5.624;2022-09-16T06:33:00;2.85;;;0.65;;
59042;SDS011;44826;51.596;5.624;2022-09-16T06:35:26;1.35;;;0.50;;
59042;SDS011;44826;51.596;5.624;2022-09-16T06:37:52;1.70;;;0.50;;
59042;SDS011;44826;51.596;5.624;2022-09-16T06:40:18;2.00;;;0.70;;
59042;SDS011;44826;51.596;5.624;2022-09-16T06:42:43;2.67;;;0.70;;
59042;SDS011;44826;51.596;5.624;2022-09-16T06:45:08;2.83;;;0.70;;
59042;SDS011;44826;51.596;5.624;2022-09-16T06:47:34;1.95;;;0.73;;
59042;SDS011;44826;51.596;5.624;2022-09-16T06:49:59;1.98;;;0.70;;
59042;SDS011;44826;51.596;5.624;2022-09-16T06:52:25;1.52;;;0.63;;
59042;SDS011;44826;51.596;5.624;2022-09-16T06:54:52;1.65;;;0.68;;
59042;SDS011;44826;51.596;5.624;2022-09-16T06:57:18;2.30;;;0.70;;
59042;SDS011;44826;51.596;5.624;2022-09-16T06:59:46;3.50;;;0.90;;
59042;SDS011;44826;51.596;5.624;2022-09-16T07:02:12;3.47;;;0.80;;
59042;SDS011;44826;51.596;5.624;2022-09-16T07:04:37;2.00;;;0.65;;
59042;SDS011;44826;51.596;5.624;2022-09-16T07:07:03;3.08;;;0.80;;
59042;SDS011;44826;51.596;5.624;2022-09-16T07:09:28;3.45;;;0.70;;
59042;SDS011;44826;51.596;5.624;2022-09-16T07:11:54;2.67;;;0.70;;
59042;SDS011;44826;51.596;5.624;2022-09-16T07:14:19;3.63;;;0.70;;
59042;SDS011;44826;51.596;5.624;2022-09-16T07:16:45;2.42;;;0.68;;
59042;SDS011;44826;51.596;5.624;2022-09-16T07:19:10;2.67;;;0.65;;
59042;SDS011;44826;51.596;5.624;2022-09-16T07:21:35;1.90;;;0.70;;
59042;SDS011;44826;51.596;5.624;2022-09-16T07:24:01;2.45;;;0.70;;
59042;SDS011;44826;51.596;5.624;2022-09-16T07:26:28;3.08;;;0.70;;
59042;SDS011;44826;51.596;5.624;2022-09-16T07:28:57;2.33;;;0.60;;
59042;SDS011;44826;51.596;5.624;2022-09-16T07:31:25;2.22;;;0.70;;
59042;SDS011;44826;51.596;5.624;2022-09-16T07:33:53;2.10;;;0.65;;
59042;SDS011;44826;51.596;5.624;2022-09-16T07:36:20;1.63;;;0.40;;
59042;SDS011;44826;51.596;5.624;2022-09-16T07:38:48;2.17;;;0.50;;
59042;SDS011;44826;51.596;5.624;2022-09-16T07:41:15;2.60;;;0.57;;
59042;SDS011;44826;51.596;5.624;2022-09-16T07:43:46;4.82;;;0.80;;
59042;SDS011;44826;51.596;5.624;2022-09-16T07:46:12;2.50;;;0.50;;
59042;SDS011;44826;51.596;5.624;2022-09-16T07:48:40;1.90;;;0.50;;
59042;SDS011;44826;51.596;5.624;2022-09-16T07:51:08;2.20;;;0.60;;
59042;SDS011;44826;51.596;5.624;2022-09-16T07:53:35;1.67;;;0.55;;
59042;SDS011;44826;51.596;5.624;2022-09-16T07:56:02;2.00;;;0.43;;
59042;SDS011;44826;51.596;5.624;2022-09-16T07:58:29;1.80;;;0.50;;
59042;SDS011;44826;51.596;5.624;2022-09-16T08:00:54;1.25;;;0.47;;
59042;SDS011;44826;51.596;5.624;2022-09-16T08:03:19;1.75;;;0.40;;
59042;SDS011;44826;51.596;5.624;2022-09-16T08:05:44;2.15;;;0.40;;
59042;SDS011;44826;51.596;5.624;2022-09-16T08:08:10;2.88;;;0.40;;
59042;SDS011;44826;51.596;5.624;2022-09-16T08:10:35;2.53;;;0.40;;
59042;SDS011;44826;51.596;5.624;2022-09-16T08:13:05;5.00;;;0.68;;
59042;SDS011;44826;51.596;5.624;2022-09-16T08:15:32;2.55;;;0.50;;
59042;SDS011;44826;51.596;5.624;2022-09-16T08:17:57;4.43;;;0.70;;
59042;SDS011;44826;51.596;5.624;2022-09-16T08:20:22;3.28;;;0.50;;
59042;SDS011;44826;51.596;5.624;2022-09-16T08:22:50;2.22;;;0.80;;
59042;SDS011;44826;51.596;5.624;2022-09-16T08:25:15;2.55;;;0.60;;
59042;SDS011;44826;51.596;5.624;2022-09-16T08:27:40;3.15;;;0.80;;
59042;SDS011;44826;51.596;5.624;2022-09-16T08:30:06;4.70;;;0.47;;
59042;SDS011;44826;51.596;5.624;2022-09-16T08:32:31;2.13;;;0.63;;
59042;SDS011;44826;51.596;5.624;2022-09-16T08:34:57;3.00;;;0.52;;
59042;SDS011;44826;51.596;5.624;2022-09-16T08:37:22;4.78;;;0.60;;
59042;SDS011;44826;51.596;5.624;2022-09-16T08:39:47;4.50;;;0.70;;
59042;SDS011;44826;51.596;5.624;2022-09-16T08:44:59;3.35;;;0.73;;
59042;SDS011;44826;51.596;5.624;2022-09-16T08:50:42;1.10;;;0.60;;
59042;SDS011;44826;51.596;5.624;2022-09-16T08:53:22;2.13;;;0.75;;
59042;SDS011;44826;51.596;5.624;2022-09-16T08:55:56;2.28;;;0.88;;
59042;SDS011;44826;51.596;5.624;2022-09-16T08:58:26;2.17;;;0.70;;
59042;SDS011;44826;51.596;5.624;2022-09-16T09:00:59;4.05;;;1.05;;
59042;SDS011;44826;51.596;5.624;2022-09-16T09:03:39;3.35;;;0.70;;
59042;SDS011;44826;51.596;5.624;2022-09-16T09:06:16;3.28;;;0.70;;
59042;SDS011;44826;51.596;5.624;2022-09-16T09:12:01;1.98;;;0.60;;
59042;SDS011;44826;51.596;5.624;2022-09-16T09:19:56;2.65;;;0.60;;
59042;SDS011;44826;51.596;5.624;2022-09-16T09:25:47;4.60;;;0.60;;
59042;SDS011;44826;51.596;5.624;2022-09-16T09:28:30;2.60;;;0.50;;
59042;SDS011;44826;51.596;5.624;2022-09-16T09:42:20;3.30;;;0.50;;
59042;SDS011;44826;51.596;5.624;2022-09-16T09:47:38;1.65;;;0.60;;
59042;SDS011;44826;51.596;5.624;2022-09-16T09:50:12;5.05;;;0.40;;
59042;SDS011;44826;51.596;5.624;2022-09-16T09:52:43;1.63;;;0.30;;
59042;SDS011;44826;51.596;5.624;2022-09-16T09:55:17;0.93;;;0.20;;
59042;SDS011;44826;51.596;5.624;2022-09-16T10:00:40;0.52;;;0.20;;
59042;SDS011;44826;51.596;5.624;2022-09-16T10:03:09;0.63;;;0.10;;
59042;SDS011;44826;51.596;5.624;2022-09-16T10:05:36;1.35;;;0.30;;
59042;SDS011;44826;51.596;5.624;2022-09-16T10:10:49;0.55;;;0.20;;
59042;SDS011;44826;51.596;5.624;2022-09-16T10:13:16;1.63;;;0.20;;
59042;SDS011;44826;51.596;5.624;2022-09-16T10:15:43;0.50;;;0.20;;
59042;SDS011;44826;51.596;5.624;2022-09-16T10:18:23;1.00;;;0.30;;
59042;SDS011;44826;51.596;5.624;2022-09-16T10:21:10;3.70;;;0.40;;
59042;SDS011;44826;51.596;5.624;2022-09-16T10:23:38;3.10;;;0.50;;
59042;SDS011;44826;51.596;5.624;2022-09-16T10:29:01;2.45;;;0.55;;
59042;SDS011;44826;51.596;5.624;2022-09-16T10:31:43;1.42;;;0.38;;
59042;SDS011;44826;51.596;5.624;2022-09-16T10:39:49;2.00;;;0.45;;
59042;SDS011;44826;51.596;5.624;2022-09-16T10:42:18;1.33;;;0.50;;
59042;SDS011;44826;51.596;5.624;2022-09-16T10:44:52;1.83;;;0.45;;
59042;SDS011;44826;51.596;5.624;2022-09-16T10:47:22;0.80;;;0.22;;
59042;SDS011;44826;51.596;5.624;2022-09-16T10:49:56;0.85;;;0.32;;
59042;SDS011;44826;51.596;5.624;2022-09-16T10:52:26;3.10;;;0.50;;
59042;SDS011;44826;51.596;5.624;2022-09-16T10:54:53;1.35;;;0.40;;
59042;SDS011;44826;51.596;5.624;2022-09-16T11:00:02;3.67;;;0.50;;
59042;SDS011;44826;51.596;5.624;2022-09-16T11:02:38;3.75;;;0.40;;
59042;SDS011;44826;51.596;5.624;2022-09-16T11:08:13;1.85;;;0.38;;
59042;SDS011;44826;51.596;5.624;2022-09-16T11:10:44;2.92;;;0.70;;
59042;SDS011;44826;51.596;5.624;2022-09-16T11:13:43;2.10;;;0.65;;
59042;SDS011;44826;51.596;5.624;2022-09-16T11:19:19;1.30;;;0.40;;
59042;SDS011;44826;51.596;5.624;2022-09-16T11:22:18;1.80;;;0.57;;
59042;SDS011;44826;51.596;5.624;2022-09-16T11:25:00;2.28;;;0.30;;
59042;SDS011;44826;51.596;5.624;2022-09-16T11:30:37;3.45;;;0.40;;
59042;SDS011;44826;51.596;5.624;2022-09-16T11:33:20;2.75;;;0.47;;
59042;SDS011;44826;51.596;5.624;2022-09-16T11:38:55;1.98;;;0.60;;
59042;SDS011;44826;51.596;5.624;2022-09-16T11:42:07;1.25;;;0.38;;
59042;SDS011;44826;51.596;5.624;2022-09-16T12:04:21;2.75;;;0.35;;
59042;SDS011;44826;51.596;5.624;2022-09-16T12:12:36;1.65;;;0.20;;
59042;SDS011;44826;51.596;5.624;2022-09-16T12:15:17;2.95;;;0.50;;
59042;SDS011;44826;51.596;5.624;2022-09-16T12:17:51;0.52;;;0.10;;
59042;SDS011;44826;51.596;5.624;2022-09-16T12:20:22;1.10;;;0.22;;
59042;SDS011;44826;51.596;5.624;2022-09-16T12:28:37;1.02;;;0.10;;
59042;SDS011;44826;51.596;5.624;2022-09-16T12:32:03;0.82;;;0.20;;
59042;SDS011;44826;51.596;5.624;2022-09-16T12:36:34;1.58;;;0.20;;
59042;SDS011;44826;51.596;5.624;2022-09-16T12:39:02;0.73;;;0.20;;
59042;SDS011;44826;51.596;5.624;2022-09-16T12:41:40;1.35;;;0.20;;
59042;SDS011;44826;51.596;5.624;2022-09-16T12:55:27;2.63;;;0.30;;
59042;SDS011;44826;51.596;5.624;2022-09-16T13:03:18;2.03;;;0.40;;
59042;SDS011;44826;51.596;5.624;2022-09-16T13:05:47;2.65;;;0.30;;
59042;SDS011;44826;51.596;5.624;2022-09-16T13:08:20;2.85;;;0.40;;
59042;SDS011;44826;51.596;5.624;2022-09-16T13:10:54;2.40;;;0.38;;
59042;SDS011;44826;51.596;5.624;2022-09-16T13:13:30;1.60;;;0.43;;
59042;SDS011;44826;51.596;5.624;2022-09-16T13:15:59;2.92;;;0.30;;
59042;SDS011;44826;51.596;5.624;2022-09-16T13:18:43;3.03;;;0.40;;
59042;SDS011;44826;51.596;5.624;2022-09-16T13:21:17;2.67;;;0.40;;
59042;SDS011;44826;51.596;5.624;2022-09-16T13:23:50;1.50;;;0.40;;
59042;SDS011;44826;51.596;5.624;2022-09-16T13:26:41;2.80;;;0.40;;
59042;SDS011;44826;51.596;5.624;2022-09-16T13:32:02;1.42;;;0.35;;
59042;SDS011;44826;51.596;5.624;2022-09-16T13:34:27;4.18;;;0.60;;
59042;SDS011;44826;51.596;5.624;2022-09-16T13:36:52;1.33;;;0.40;;
59042;SDS011;44826;51.596;5.624;2022-09-16T13:39:28;2.13;;;0.40;;
59042;SDS011;44826;51.596;5.624;2022-09-16T13:41:55;1.40;;;0.40;;
59042;SDS011;44826;51.596;5.624;2022-09-16T13:49:35;1.45;;;0.50;;
59042;SDS011;44826;51.596;5.624;2022-09-16T13:52:10;1.58;;;0.40;;
59042;SDS011;44826;51.596;5.624;2022-09-16T13:54:50;2.20;;;0.30;;
59042;SDS011;44826;51.596;5.624;2022-09-16T13:57:37;2.55;;;0.40;;
59042;SDS011;44826;51.596;5.624;2022-09-16T14:05:21;3.92;;;0.40;;
59042;SDS011;44826;51.596;5.624;2022-09-16T14:08:04;1.95;;;0.50;;
59042;SDS011;44826;51.596;5.624;2022-09-16T14:13:21;1.15;;;0.40;;
59042;SDS011;44826;51.596;5.624;2022-09-16T14:15:49;2.53;;;0.50;;
59042;SDS011;44826;51.596;5.624;2022-09-16T14:18:20;1.45;;;0.40;;
59042;SDS011;44826;51.596;5.624;2022-09-16T14:23:25;3.38;;;0.40;;
59042;SDS011;44826;51.596;5.624;2022-09-16T14:25:52;1.13;;;0.30;;
59042;SDS011;44826;51.596;5.624;2022-09-16T14:30:45;3.13;;;0.52;;
59042;SDS011;44826;51.596;5.624;2022-09-16T14:33:12;3.92;;;0.70;;
59042;SDS011;44826;51.596;5.624;2022-09-16T14:35:43;3.20;;;0.40;;
59042;SDS011;44826;51.596;5.624;2022-09-16T14:38:11;2.83;;;0.47;;
59042;SDS011;44826;51.596;5.624;2022-09-16T14:40:39;3.17;;;0.40;;
59042;SDS011;44826;51.596;5.624;2022-09-16T14:43:05;3.90;;;0.60;;
59042;SDS011;44826;51.596;5.624;2022-09-16T14:45:32;3.65;;;0.57;;
59042;SDS011;44826;51.596;5.624;2022-09-16T14:48:00;3.53;;;0.70;;
59042;SDS011;44826;51.596;5.624;2022-09-16T14:50:35;3.10;;;0.50;;
59042;SDS011;44826;51.596;5.624;2022-09-16T14:53:04;2.47;;;0.47;;
59042;SDS011;44826;51.596;5.624;2022-09-16T14:55:32;1.63;;;0.43;;
59042;SDS011;44826;51.596;5.624;2022-09-16T14:58:03;5.20;;;0.50;;
59042;SDS011;44826;51.596;5.624;2022-09-16T15:00:33;2.78;;;0.63;;
59042;SDS011;44826;51.596;5.624;2022-09-16T15:03:09;3.58;;;0.60;;
59042;SDS011;44826;51.596;5.624;2022-09-16T15:05:41;4.20;;;0.55;;
59042;SDS011;44826;51.596;5.624;2022-09-16T15:10:48;2.45;;;0.50;;
59042;SDS011;44826;51.596;5.624;2022-09-16T15:13:17;2.53;;;0.60;;
59042;SDS011;44826;51.596;5.624;2022-09-16T15:15:45;4.13;;;0.52;;
59042;SDS011;44826;51.596;5.624;2022-09-16T15:18:25;3.53;;;0.40;;
59042;SDS011;44826;51.596;5.624;2022-09-16T15:23:51;5.05;;;0.70;;
59042;SDS011;44826;51.596;5.624;2022-09-16T15:26:24;2.90;;;0.50;;
59042;SDS011;44826;51.596;5.624;2022-09-16T15:31:25;2.70;;;0.95;;
59042;SDS011;44826;51.596;5.624;2022-09-16T15:33:56;2.25;;;0.60;;
59042;SDS011;44826;51.596;5.624;2022-09-16T15:36:34;5.00;;;0.75;;
59042;SDS011;44826;51.596;5.624;2022-09-16T15:39:04;4.68;;;0.98;;
59042;SDS011;44826;51.596;5.624;2022-09-16T15:41:45;3.20;;;0.65;;
59042;SDS011;44826;51.596;5.624;2022-09-16T15:44:12;4.68;;;0.70;;
59042;SDS011;44826;51.596;5.624;2022-09-16T15:46:44;2.53;;;0.60;;
59042;SDS011;44826;51.596;5.624;2022-09-16T15:49:10;3.97;;;0.70;;
59042;SDS011;44826;51.596;5.624;2022-09-16T15:51:42;8.38;;;1.27;;
59042;SDS011;44826;51.596;5.624;2022-09-16T15:57:03;4.80;;;0.98;;
59042;SDS011;44826;51.596;5.624;2022-09-16T15:59:36;8.80;;;0.60;;
59042;SDS011;44826;51.596;5.624;2022-09-16T16:02:23;5.13;;;0.90;;
59042;SDS011;44826;51.596;5.624;2022-09-16T16:05:13;4.60;;;0.70;;
59042;SDS011;44826;51.596;5.624;2022-09-16T16:07:47;2.72;;;0.57;;
59042;SDS011;44826;51.596;5.624;2022-09-16T16:10:21;5.40;;;0.57;;
59042;SDS011;44826;51.596;5.624;2022-09-16T16:12:49;4.28;;;0.70;;
59042;SDS011;44826;51.596;5.624;2022-09-16T16:15:18;2.67;;;0.90;;
59042;SDS011;44826;51.596;5.624;2022-09-16T16:17:47;5.10;;;1.13;;
59042;SDS011;44826;51.596;5.624;2022-09-16T16:20:14;3.28;;;0.50;;
59042;SDS011;44826;51.596;5.624;2022-09-16T16:22:40;1.80;;;0.43;;
59042;SDS011;44826;51.596;5.624;2022-09-16T16:25:08;4.18;;;0.70;;
59042;SDS011;44826;51.596;5.624;2022-09-16T16:27:33;4.65;;;0.80;;
59042;SDS011;44826;51.596;5.624;2022-09-16T16:29:58;2.40;;;0.45;;
59042;SDS011;44826;51.596;5.624;2022-09-16T16:32:24;4.07;;;0.75;;
59042;SDS011;44826;51.596;5.624;2022-09-16T16:34:49;4.47;;;0.90;;
59042;SDS011;44826;51.596;5.624;2022-09-16T16:37:16;2.60;;;0.60;;
59042;SDS011;44826;51.596;5.624;2022-09-16T16:39:43;2.47;;;0.50;;
59042;SDS011;44826;51.596;5.624;2022-09-16T16:42:12;4.35;;;0.80;;
59042;SDS011;44826;51.596;5.624;2022-09-16T16:44:38;5.20;;;0.75;;
59042;SDS011;44826;51.596;5.624;2022-09-16T16:47:03;5.07;;;0.70;;
59042;SDS011;44826;51.596;5.624;2022-09-16T16:49:29;3.78;;;0.60;;
59042;SDS011;44826;51.596;5.624;2022-09-16T16:51:55;2.92;;;0.60;;
59042;SDS011;44826;51.596;5.624;2022-09-16T16:54:22;3.38;;;0.63;;
59042;SDS011;44826;51.596;5.624;2022-09-16T16:56:48;3.58;;;0.70;;
59042;SDS011;44826;51.596;5.624;2022-09-16T16:59:14;2.63;;;0.50;;
59042;SDS011;44826;51.596;5.624;2022-09-16T17:01:40;3.95;;;0.80;;
59042;SDS011;44826;51.596;5.624;2022-09-16T17:04:06;5.13;;;0.73;;
59042;SDS011;44826;51.596;5.624;2022-09-16T17:06:32;3.50;;;0.70;;
59042;SDS011;44826;51.596;5.624;2022-09-16T17:08:58;2.78;;;0.80;;
59042;SDS011;44826;51.596;5.624;2022-09-16T17:11:24;4.55;;;0.60;;
59042;SDS011;44826;51.596;5.624;2022-09-16T17:13:51;1.83;;;0.47;;
59042;SDS011;44826;51.596;5.624;2022-09-16T17:16:18;6.35;;;0.80;;
59042;SDS011;44826;51.596;5.624;2022-09-16T17:18:48;2.47;;;0.60;;
59042;SDS011;44826;51.596;5.624;2022-09-16T17:21:16;3.95;;;0.80;;
59042;SDS011;44826;51.596;5.624;2022-09-16T17:23:42;3.60;;;0.60;;
59042;SDS011;44826;51.596;5.624;2022-09-16T17:26:08;4.65;;;0.60;;
59042;SDS011;44826;51.596;5.624;2022-09-16T17:28:35;1.90;;;0.47;;
59042;SDS011;44826;51.596;5.624;2022-09-16T17:31:08;4.32;;;0.70;;
59042;SDS011;44826;51.596;5.624;2022-09-16T17:33:34;3.30;;;0.52;;
59042;SDS011;44826;51.596;5.624;2022-09-16T17:36:00;2.53;;;0.63;;
59042;SDS011;44826;51.596;5.624;2022-09-16T17:38:30;4.50;;;0.60;;
59042;SDS011;44826;51.596;5.624;2022-09-16T17:41:03;2.90;;;0.60;;
59042;SDS011;44826;51.596;5.624;2022-09-16T17:43:30;4.18;;;0.70;;
59042;SDS011;44826;51.596;5.624;2022-09-16T17:45:56;2.30;;;0.60;;
59042;SDS011;44826;51.596;5.624;2022-09-16T17:48:22;4.18;;;0.88;;
59042;SDS011;44826;51.596;5.624;2022-09-16T17:50:51;3.13;;;0.60;;
59042;SDS011;44826;51.596;5.624;2022-09-16T17:53:17;3.80;;;0.70;;
59042;SDS011;44826;51.596;5.624;2022-09-16T17:55:43;4.25;;;0.80;;
59042;SDS011;44826;51.596;5.624;2022-09-16T17:58:09;1.65;;;0.50;;
59042;SDS011;44826;51.596;5.624;2022-09-16T18:00:37;3.97;;;0.68;;
59042;SDS011;44826;51.596;5.624;2022-09-16T18:03:03;4.20;;;0.75;;
59042;SDS011;44826;51.596;5.624;2022-09-16T18:05:31;1.80;;;0.60;;
59042;SDS011;44826;51.596;5.624;2022-09-16T18:07:57;3.00;;;0.70;;